Terminal Aerodrome Forecast
Issued by NWS

Current Version | Previous Version | Text Only | Print | Product List | Glossary On
Versions: 1 2 3 4 5 6 7 8 9 10 11 12 13 14 15 16 17 18 19 20 21 22 23 24 25 26 27 28
000
FTAK31 PANC 161739
TAFADQ
TAF
PADQ 161739Z 1618/1718 13006KT P6SM VCSH BKN050
      TEMPO 1622/1624 6SM -RA OVC028
     FM170000 11012KT 6SM -RA OVC028
     FM170300 10012G22KT 3SM -RA OVC012
     FM170600 11015G25KT 2SM -RA BKN005 OVC012
     FM171500 18008KT 6SM -SHRA BKN035=

USA.gov is the U.S. government's official web portal to all federal, state and local government web resources and services.